Time,TemperatureF,DewpointF,PressureIn,WindDirection,WindDirectionDegrees,WindSpeedMPH,WindSpeedGustMPH,Humidity,HourlyPrecipIn,Conditions,Clouds,dailyrainin,SolarRadiationWatts/m^2,SoftwareType,DateUTC
2013-07-29 00:08:00,69.3,67.0,29.95,SW,227,0.0,5.0,92,0.00,,,0.00,0,weatherlink.com 1.10,2013-07-29 04:08:00,
2013-07-29 00:23:00,69.1,67.0,29.95,SW,228,0.0,0.0,92,0.00,,,0.00,0,weatherlink.com 1.10,2013-07-29 04:23:00,
2013-07-29 00:38:00,69.0,67.0,29.95,SW,228,0.0,0.0,93,0.00,,,0.00,0,weatherlink.com 1.10,2013-07-29 04:38:00,
2013-07-29 00:53:00,68.8,67.0,29.95,SW,228,0.0,0.0,93,0.00,,,0.00,0,weatherlink.com 1.10,2013-07-29 04:53:00,
2013-07-29 01:08:00,68.6,67.0,29.94,SW,228,0.0,0.0,93,0.00,,,0.00,0,weatherlink.com 1.10,2013-07-29 05:08:00,
2013-07-29 01:23:00,68.5,67.0,29.95,SW,228,0.0,0.0,93,0.00,,,0.00,0,weatherlink.com 1.10,2013-07-29 05:23:00,
2013-07-29 01:38:00,68.5,67.0,29.95,SW,228,0.0,0.0,94,0.00,,,0.00,0,weatherlink.com 1.10,2013-07-29 05:38:00,
2013-07-29 01:53:00,68.5,67.0,29.94,SW,227,0.0,0.0,94,0.00,,,0.00,0,weatherlink.com 1.10,2013-07-29 05:53:00,
2013-07-29 02:08:00,68.5,67.0,29.94,SW,227,0.0,0.0,94,0.00,,,0.00,0,weatherlink.com 1.10,2013-07-29 06:08:00,
2013-07-29 02:24:00,68.4,67.0,29.93,SW,228,0.0,0.0,94,0.00,,,0.00,0,weatherlink.com 1.10,2013-07-29 06:24:00,
2013-07-29 02:38:00,68.4,67.0,29.94,SW,228,0.0,0.0,94,0.00,,,0.00,0,weatherlink.com 1.10,2013-07-29 06:38:00,
2013-07-29 02:53:00,68.3,67.0,29.94,SW,228,0.0,0.0,94,0.00,,,0.00,0,weatherlink.com 1.10,2013-07-29 06:53:00,
2013-07-29 03:08:00,68.2,67.0,29.93,SW,228,0.0,0.0,94,0.00,,,0.00,0,weatherlink.com 1.10,2013-07-29 07:08:00,
2013-07-29 03:23:00,68.0,66.0,29.93,SW,228,0.0,1.0,94,0.00,,,0.00,0,weatherlink.com 1.10,2013-07-29 07:23:00,
2013-07-29 03:38:00,67.7,66.0,29.94,SW,221,2.0,5.0,94,0.00,,,0.00,0,weatherlink.com 1.10,2013-07-29 07:38:00,
2013-07-29 03:53:00,67.6,66.0,29.94,SW,221,0.0,0.0,94,0.00,,,0.00,0,weatherlink.com 1.10,2013-07-29 07:53:00,
2013-07-29 04:08:00,67.4,65.0,29.94,SW,221,0.0,0.0,93,0.00,,,0.00,0,weatherlink.com 1.10,2013-07-29 08:08:00,
2013-07-29 04:23:00,67.2,65.0,29.94,SW,221,0.0,0.0,93,0.00,,,0.00,0,weatherlink.com 1.10,2013-07-29 08:23:00,
2013-07-29 04:38:00,66.7,65.0,29.94,SW,221,0.0,0.0,93,0.00,,,0.00,0,weatherlink.com 1.10,2013-07-29 08:38:00,
2013-07-29 04:53:00,66.3,64.0,29.95,SW,221,0.0,0.0,93,0.00,,,0.00,0,weatherlink.com 1.10,2013-07-29 08:53:00,
2013-07-29 05:08:00,66.0,64.0,29.95,SW,221,0.0,0.0,93,0.00,,,0.00,0,weatherlink.com 1.10,2013-07-29 09:08:00,
2013-07-29 05:23:00,65.5,64.0,29.95,SW,221,0.0,0.0,94,0.00,,,0.00,0,weatherlink.com 1.10,2013-07-29 09:23:00,
2013-07-29 05:38:00,65.2,64.0,29.95,SW,221,0.0,0.0,94,0.00,,,0.00,0,weatherlink.com 1.10,2013-07-29 09:38:00,
2013-07-29 05:54:00,64.8,63.0,29.95,SW,221,0.0,0.0,94,0.00,,,0.00,9,weatherlink.com 1.10,2013-07-29 09:54:00,
2013-07-29 06:09:00,64.5,63.0,29.95,SW,221,0.0,0.0,94,0.00,,,0.00,19,weatherlink.com 1.10,2013-07-29 10:09:00,
2013-07-29 06:39:00,64.3,63.0,29.96,SW,221,0.0,0.0,95,0.00,,,0.00,39,weatherlink.com 1.10,2013-07-29 10:39:00,
2013-07-29 07:24:00,65.8,65.0,29.96,SW,221,0.0,0.0,96,0.00,,,0.00,67,weatherlink.com 1.10,2013-07-29 11:24:00,
2013-07-29 07:39:00,66.6,66.0,29.96,SW,221,0.0,0.0,97,0.00,,,0.00,244,weatherlink.com 1.10,2013-07-29 11:39:00,
2013-07-29 07:54:00,67.7,67.0,29.97,SW,221,0.0,0.0,97,0.00,,,0.00,362,weatherlink.com 1.10,2013-07-29 11:54:00,
2013-07-29 08:09:00,69.0,68.0,29.97,SW,219,0.0,0.0,95,0.00,,,0.00,408,weatherlink.com 1.10,2013-07-29 12:09:00,
2013-07-29 08:24:00,71.2,69.0,29.97,SSW,203,5.0,5.0,91,0.00,,,0.00,459,weatherlink.com 1.10,2013-07-29 12:24:00,
2013-07-29 08:39:00,72.5,69.0,29.98,SW,223,0.0,4.0,87,0.00,,,0.00,283,weatherlink.com 1.10,2013-07-29 12:39:00,
2013-07-29 08:54:00,73.2,69.0,29.98,WSW,242,0.0,3.0,85,0.00,,,0.00,181,weatherlink.com 1.10,2013-07-29 12:54:00,
2013-07-29 09:24:00,75.0,69.0,29.97,South,187,0.0,1.0,81,0.00,,,0.00,262,weatherlink.com 1.10,2013-07-29 13:24:00,
2013-07-29 09:40:00,75.8,71.0,29.97,ESE,109,0.0,1.0,84,0.00,,,0.00,621,weatherlink.com 1.10,2013-07-29 13:40:00,
2013-07-29 09:54:00,76.8,69.0,29.98,SSE,153,0.0,6.0,78,0.00,,,0.00,661,weatherlink.com 1.10,2013-07-29 13:54:00,
2013-07-29 10:24:00,78.5,70.0,29.97,South,176,0.0,5.0,74,0.00,,,0.00,461,weatherlink.com 1.10,2013-07-29 14:24:00,
2013-07-29 10:39:00,78.6,69.0,29.98,SW,228,0.0,6.0,72,0.00,,,0.00,420,weatherlink.com 1.10,2013-07-29 14:39:00,
2013-07-29 10:54:00,79.9,70.0,29.97,SSW,197,6.0,8.0,71,0.00,,,0.00,868,weatherlink.com 1.10,2013-07-29 14:54:00,
2013-07-29 11:10:00,80.6,70.0,29.97,SSE,161,0.0,8.0,71,0.00,,,0.00,1025,weatherlink.com 1.10,2013-07-29 15:10:00,
2013-07-29 11:25:00,81.1,69.0,29.96,SSW,192,6.0,8.0,66,0.00,,,0.00,981,weatherlink.com 1.10,2013-07-29 15:25:00,
2013-07-29 11:40:00,82.0,68.0,29.96,South,182,0.0,6.0,62,0.00,,,0.00,909,weatherlink.com 1.10,2013-07-29 15:40:00,
2013-07-29 12:10:00,82.6,68.0,29.95,SSW,207,0.0,10.0,61,0.00,,,0.00,891,weatherlink.com 1.10,2013-07-29 16:10:00,
2013-07-29 12:40:00,82.7,69.0,29.94,SW,215,8.0,11.0,64,0.00,,,0.00,877,weatherlink.com 1.10,2013-07-29 16:40:00,
2013-07-29 12:55:00,82.8,68.0,29.94,SSW,196,3.0,10.0,61,0.00,,,0.00,893,weatherlink.com 1.10,2013-07-29 16:55:00,
2013-07-29 13:10:00,83.3,69.0,29.94,SSW,193,2.0,6.0,62,0.00,,,0.00,965,weatherlink.com 1.10,2013-07-29 17:10:00,
2013-07-29 13:25:00,83.9,67.0,29.93,South,184,7.0,11.0,57,0.00,,,0.00,891,weatherlink.com 1.10,2013-07-29 17:25:00,
2013-07-29 13:55:00,83.9,67.0,29.94,WSW,241,6.0,14.0,58,0.00,,,0.00,900,weatherlink.com 1.10,2013-07-29 17:55:00,
2013-07-29 14:25:00,83.1,67.0,29.93,SSW,209,0.0,9.0,58,0.00,,,0.00,788,weatherlink.com 1.10,2013-07-29 18:25:00,
2013-07-29 14:40:00,83.9,67.0,29.93,SSW,200,4.0,11.0,58,0.00,,,0.00,861,weatherlink.com 1.10,2013-07-29 18:40:00,
2013-07-29 14:55:00,82.8,66.0,29.93,South,187,3.0,11.0,58,0.00,,,0.00,211,weatherlink.com 1.10,2013-07-29 18:55:00,
2013-07-29 15:10:00,81.2,71.0,29.93,WSW,238,3.0,7.0,70,0.01,,,0.01,295,weatherlink.com 1.10,2013-07-29 19:10:00,
2013-07-29 15:25:00,80.7,72.0,29.93,SW,215,0.0,5.0,75,0.01,,,0.01,276,weatherlink.com 1.10,2013-07-29 19:25:00,
2013-07-29 15:40:00,81.8,72.0,29.93,SW,230,0.0,3.0,72,0.01,,,0.01,745,weatherlink.com 1.10,2013-07-29 19:40:00,
2013-07-29 16:10:00,81.9,72.0,29.93,SSW,199,3.0,6.0,72,0.01,,,0.02,780,weatherlink.com 1.10,2013-07-29 20:10:00,
2013-07-29 16:25:00,82.3,70.0,29.92,WSW,246,3.0,7.0,66,0.01,,,0.02,617,weatherlink.com 1.10,2013-07-29 20:25:00,
2013-07-29 16:40:00,81.9,69.0,29.92,SSE,159,0.0,4.0,65,0.01,,,0.02,225,weatherlink.com 1.10,2013-07-29 20:40:00,
2013-07-29 16:57:00,82.2,71.0,29.92,South,175,0.0,0.0,69,0.00,,,0.02,179,weatherlink.com 1.10,2013-07-29 20:57:00,
2013-07-29 17:10:00,82.5,71.0,29.92,South,175,0.0,0.0,68,0.00,,,0.02,566,weatherlink.com 1.10,2013-07-29 21:10:00,
2013-07-29 17:25:00,83.5,68.0,29.91,WNW,287,3.0,8.0,60,0.00,,,0.02,478,weatherlink.com 1.10,2013-07-29 21:25:00,
2013-07-29 17:40:00,83.5,66.0,29.92,West,280,0.0,9.0,55,0.00,,,0.02,401,weatherlink.com 1.10,2013-07-29 21:40:00,
2013-07-29 18:10:00,83.5,64.0,29.93,NW,308,0.0,3.0,52,0.00,,,0.02,295,weatherlink.com 1.10,2013-07-29 22:10:00,
2013-07-29 18:25:00,82.7,64.0,29.93,NNW,327,0.0,5.0,54,0.00,,,0.02,54,weatherlink.com 1.10,2013-07-29 22:25:00,
2013-07-29 18:40:00,80.9,63.0,29.93,North,9,0.0,5.0,54,0.00,,,0.02,39,weatherlink.com 1.10,2013-07-29 22:40:00,
2013-07-29 18:55:00,79.3,62.0,29.94,WNW,290,0.0,6.0,56,0.00,,,0.02,35,weatherlink.com 1.10,2013-07-29 22:55:00,
2013-07-29 19:10:00,78.2,62.0,29.95,WNW,294,0.0,0.0,58,0.00,,,0.02,32,weatherlink.com 1.10,2013-07-29 23:10:00,
2013-07-29 19:25:00,76.8,61.0,29.95,NNE,20,0.0,5.0,59,0.00,,,0.02,26,weatherlink.com 1.10,2013-07-29 23:25:00,
2013-07-29 19:55:00,74.7,62.0,29.97,North,11,0.0,0.0,65,0.00,,,0.02,12,weatherlink.com 1.10,2013-07-29 23:55:00,
2013-07-29 20:25:00,72.0,63.0,29.98,North,11,0.0,0.0,73,0.00,,,0.02,0,weatherlink.com 1.10,2013-07-30 00:25:00,
2013-07-29 20:55:00,69.3,63.0,30.00,North,11,0.0,0.0,80,0.00,,,0.02,0,weatherlink.com 1.10,2013-07-30 00:55:00,
2013-07-29 21:10:00,68.2,63.0,30.01,North,11,0.0,0.0,83,0.00,,,0.02,0,weatherlink.com 1.10,2013-07-30 01:10:00,
2013-07-29 21:25:00,66.8,62.0,30.01,North,11,0.0,0.0,85,0.00,,,0.02,0,weatherlink.com 1.10,2013-07-30 01:25:00,
2013-07-29 21:55:00,64.9,61.0,30.02,North,11,0.0,0.0,86,0.00,,,0.02,0,weatherlink.com 1.10,2013-07-30 01:55:00,
2013-07-29 22:10:00,64.5,61.0,30.02,North,11,0.0,0.0,87,0.00,,,0.02,0,weatherlink.com 1.10,2013-07-30 02:10:00,
2013-07-29 22:31:00,63.9,61.0,30.02,North,11,0.0,0.0,89,0.00,,,0.02,0,weatherlink.com 1.10,2013-07-30 02:31:00,
2013-07-29 22:41:00,63.5,60.0,30.03,North,11,0.0,0.0,89,0.00,,,0.02,0,weatherlink.com 1.10,2013-07-30 02:41:00,
2013-07-29 23:26:00,62.1,60.0,30.03,North,11,0.0,0.0,91,0.00,,,0.02,0,weatherlink.com 1.10,2013-07-30 03:26:00,
2013-07-29 23:41:00,61.9,60.0,30.04,North,11,0.0,0.0,92,0.00,,,0.02,0,weatherlink.com 1.10,2013-07-30 03:41:00,
2013-07-29 23:56:00,61.7,59.0,30.04,North,11,0.0,0.0,92,0.00,,,0.02,0,weatherlink.com 1.10,2013-07-30 03:56:00,